sensor_id;sensor_type;location;lat;lon;timestamp;temperature;humidity
59075;DHT22;44860;53.020;6.738;2023-07-31T00:02:15;16.30;99.90
59075;DHT22;44860;53.020;6.738;2023-07-31T00:04:40;16.30;99.90
59075;DHT22;44860;53.020;6.738;2023-07-31T00:07:06;16.20;99.90
59075;DHT22;44860;53.020;6.738;2023-07-31T00:09:34;16.20;99.90
59075;DHT22;44860;53.020;6.738;2023-07-31T00:12:00;16.20;99.90
59075;DHT22;44860;53.020;6.738;2023-07-31T00:14:26;16.20;99.90
59075;DHT22;44860;53.020;6.738;2023-07-31T00:16:52;16.20;99.90
59075;DHT22;44860;53.020;6.738;2023-07-31T00:19:17;16.10;99.90
59075;DHT22;44860;53.020;6.738;2023-07-31T00:21:44;16.10;99.90
59075;DHT22;44860;53.020;6.738;2023-07-31T00:24:10;16.10;99.90
59075;DHT22;44860;53.020;6.738;2023-07-31T00:26:35;16.10;99.90
59075;DHT22;44860;53.020;6.738;2023-07-31T00:29:01;16.10;99.90
59075;DHT22;44860;53.020;6.738;2023-07-31T00:31:27;16.10;99.90
59075;DHT22;44860;53.020;6.738;2023-07-31T00:33:52;16.10;99.90
59075;DHT22;44860;53.020;6.738;2023-07-31T00:36:18;16.10;99.90
59075;DHT22;44860;53.020;6.738;2023-07-31T00:38:44;16.10;99.90
59075;DHT22;44860;53.020;6.738;2023-07-31T00:41:10;16.10;99.90
59075;DHT22;44860;53.020;6.738;2023-07-31T00:43:35;16.10;99.90
59075;DHT22;44860;53.020;6.738;2023-07-31T00:46:01;16.00;99.90
59075;DHT22;44860;53.020;6.738;2023-07-31T00:48:27;16.00;99.90
59075;DHT22;44860;53.020;6.738;2023-07-31T00:50:52;16.00;99.90
59075;DHT22;44860;53.020;6.738;2023-07-31T00:53:18;16.00;99.90
59075;DHT22;44860;53.020;6.738;2023-07-31T00:55:44;16.00;99.90
59075;DHT22;44860;53.020;6.738;2023-07-31T00:58:10;16.00;99.90
59075;DHT22;44860;53.020;6.738;2023-07-31T01:00:36;16.00;99.90
59075;DHT22;44860;53.020;6.738;2023-07-31T01:03:01;16.00;99.90
59075;DHT22;44860;53.020;6.738;2023-07-31T01:11:02;16.00;99.90
59075;DHT22;44860;53.020;6.738;2023-07-31T01:13:28;16.00;99.90
59075;DHT22;44860;53.020;6.738;2023-07-31T01:15:55;15.90;99.90
59075;DHT22;44860;53.020;6.738;2023-07-31T01:18:20;15.90;99.90
59075;DHT22;44860;53.020;6.738;2023-07-31T01:20:58;15.90;99.90
59075;DHT22;44860;53.020;6.738;2023-07-31T01:23:41;15.90;99.90
59075;DHT22;44860;53.020;6.738;2023-07-31T01:26:23;15.90;99.90
59075;DHT22;44860;53.020;6.738;2023-07-31T01:29:10;15.90;99.90
59075;DHT22;44860;53.020;6.738;2023-07-31T01:31:39;15.90;99.90
59075;DHT22;44860;53.020;6.738;2023-07-31T01:34:06;15.90;99.90
59075;DHT22;44860;53.020;6.738;2023-07-31T01:36:34;15.90;99.90
59075;DHT22;44860;53.020;6.738;2023-07-31T01:39:00;15.90;99.90
59075;DHT22;44860;53.020;6.738;2023-07-31T01:41:27;15.90;99.90
59075;DHT22;44860;53.020;6.738;2023-07-31T01:43:52;15.90;99.90
59075;DHT22;44860;53.020;6.738;2023-07-31T01:46:18;15.80;99.90
59075;DHT22;44860;53.020;6.738;2023-07-31T01:48:43;15.80;99.90
59075;DHT22;44860;53.020;6.738;2023-07-31T01:51:09;15.80;99.90
59075;DHT22;44860;53.020;6.738;2023-07-31T01:53:35;15.80;99.90
59075;DHT22;44860;53.020;6.738;2023-07-31T01:56:01;15.80;99.90
59075;DHT22;44860;53.020;6.738;2023-07-31T01:58:26;15.80;99.90
59075;DHT22;44860;53.020;6.738;2023-07-31T02:00:52;15.80;99.90
59075;DHT22;44860;53.020;6.738;2023-07-31T02:03:18;15.80;99.90
59075;DHT22;44860;53.020;6.738;2023-07-31T02:05:44;15.80;99.90
59075;DHT22;44860;53.020;6.738;2023-07-31T02:08:11;15.80;99.90
59075;DHT22;44860;53.020;6.738;2023-07-31T02:10:36;15.80;99.90
59075;DHT22;44860;53.020;6.738;2023-07-31T02:13:02;15.80;99.90
59075;DHT22;44860;53.020;6.738;2023-07-31T02:15:30;15.80;99.90
59075;DHT22;44860;53.020;6.738;2023-07-31T02:17:56;15.80;99.90
59075;DHT22;44860;53.020;6.738;2023-07-31T02:20:21;15.80;99.90
59075;DHT22;44860;53.020;6.738;2023-07-31T02:22:47;15.80;99.90
59075;DHT22;44860;53.020;6.738;2023-07-31T02:25:13;15.80;99.90
59075;DHT22;44860;53.020;6.738;2023-07-31T02:27:39;15.80;99.90
59075;DHT22;44860;53.020;6.738;2023-07-31T02:30:05;15.80;99.90
59075;DHT22;44860;53.020;6.738;2023-07-31T02:32:30;15.80;99.90
59075;DHT22;44860;53.020;6.738;2023-07-31T02:34:56;15.80;99.90
59075;DHT22;44860;53.020;6.738;2023-07-31T02:37:23;15.70;99.90
59075;DHT22;44860;53.020;6.738;2023-07-31T02:39:49;15.80;99.90
59075;DHT22;44860;53.020;6.738;2023-07-31T02:42:15;15.80;99.90
59075;DHT22;44860;53.020;6.738;2023-07-31T02:44:40;15.80;99.90
59075;DHT22;44860;53.020;6.738;2023-07-31T02:47:06;15.80;99.90
59075;DHT22;44860;53.020;6.738;2023-07-31T02:49:32;15.90;99.90
59075;DHT22;44860;53.020;6.738;2023-07-31T02:51:57;15.90;99.90
59075;DHT22;44860;53.020;6.738;2023-07-31T02:54:23;15.90;99.90
59075;DHT22;44860;53.020;6.738;2023-07-31T02:56:49;15.80;99.90
59075;DHT22;44860;53.020;6.738;2023-07-31T02:59:15;15.80;99.90
59075;DHT22;44860;53.020;6.738;2023-07-31T03:01:40;15.80;99.90
59075;DHT22;44860;53.020;6.738;2023-07-31T03:04:07;15.90;99.90
59075;DHT22;44860;53.020;6.738;2023-07-31T03:06:32;15.80;99.90
59075;DHT22;44860;53.020;6.738;2023-07-31T03:08:58;15.80;99.90
59075;DHT22;44860;53.020;6.738;2023-07-31T03:11:24;15.90;99.90
59075;DHT22;44860;53.020;6.738;2023-07-31T03:13:49;15.90;99.90
59075;DHT22;44860;53.020;6.738;2023-07-31T03:16:15;15.80;99.90
59075;DHT22;44860;53.020;6.738;2023-07-31T03:18:41;15.80;99.90
59075;DHT22;44860;53.020;6.738;2023-07-31T03:21:06;15.90;99.90
59075;DHT22;44860;53.020;6.738;2023-07-31T03:23:32;15.90;99.90
59075;DHT22;44860;53.020;6.738;2023-07-31T03:26:07;15.90;99.90
59075;DHT22;44860;53.020;6.738;2023-07-31T03:28:33;15.90;99.90
59075;DHT22;44860;53.020;6.738;2023-07-31T03:30:59;15.90;99.90
59075;DHT22;44860;53.020;6.738;2023-07-31T03:33:25;15.90;99.90
59075;DHT22;44860;53.020;6.738;2023-07-31T03:35:51;16.00;99.90
59075;DHT22;44860;53.020;6.738;2023-07-31T03:38:17;16.00;99.90
59075;DHT22;44860;53.020;6.738;2023-07-31T03:40:42;16.00;99.90
59075;DHT22;44860;53.020;6.738;2023-07-31T03:43:08;16.00;99.90
59075;DHT22;44860;53.020;6.738;2023-07-31T03:45:34;16.00;99.90
59075;DHT22;44860;53.020;6.738;2023-07-31T03:48:00;16.00;99.90
59075;DHT22;44860;53.020;6.738;2023-07-31T03:50:25;16.00;99.90
59075;DHT22;44860;53.020;6.738;2023-07-31T03:52:52;16.00;99.90
59075;DHT22;44860;53.020;6.738;2023-07-31T03:55:18;16.10;99.90
59075;DHT22;44860;53.020;6.738;2023-07-31T03:57:43;16.00;99.90
59075;DHT22;44860;53.020;6.738;2023-07-31T04:00:10;16.00;99.90
59075;DHT22;44860;53.020;6.738;2023-07-31T04:02:35;16.00;99.90
59075;DHT22;44860;53.020;6.738;2023-07-31T04:05:01;16.10;99.90
59075;DHT22;44860;53.020;6.738;2023-07-31T04:07:27;16.10;99.90
59075;DHT22;44860;53.020;6.738;2023-07-31T04:09:52;16.10;99.90
59075;DHT22;44860;53.020;6.738;2023-07-31T04:12:18;16.10;99.90
59075;DHT22;44860;53.020;6.738;2023-07-31T04:14:44;16.00;99.90
59075;DHT22;44860;53.020;6.738;2023-07-31T04:17:09;16.10;99.90
59075;DHT22;44860;53.020;6.738;2023-07-31T04:19:35;16.10;99.90
59075;DHT22;44860;53.020;6.738;2023-07-31T04:22:00;16.10;99.90
59075;DHT22;44860;53.020;6.738;2023-07-31T04:24:26;16.10;99.90
59075;DHT22;44860;53.020;6.738;2023-07-31T04:26:52;16.10;99.90
59075;DHT22;44860;53.020;6.738;2023-07-31T04:29:19;16.10;99.90
59075;DHT22;44860;53.020;6.738;2023-07-31T04:31:45;16.10;99.90
59075;DHT22;44860;53.020;6.738;2023-07-31T04:34:11;16.10;99.90
59075;DHT22;44860;53.020;6.738;2023-07-31T04:36:37;16.20;99.90
59075;DHT22;44860;53.020;6.738;2023-07-31T04:39:03;16.10;99.90
59075;DHT22;44860;53.020;6.738;2023-07-31T04:41:28;16.20;99.90
59075;DHT22;44860;53.020;6.738;2023-07-31T04:43:54;16.20;99.90
59075;DHT22;44860;53.020;6.738;2023-07-31T04:46:20;16.10;99.90
59075;DHT22;44860;53.020;6.738;2023-07-31T04:48:45;16.10;99.90
59075;DHT22;44860;53.020;6.738;2023-07-31T04:51:11;16.10;99.90
59075;DHT22;44860;53.020;6.738;2023-07-31T04:53:37;16.20;99.90
59075;DHT22;44860;53.020;6.738;2023-07-31T04:56:03;16.20;99.90
59075;DHT22;44860;53.020;6.738;2023-07-31T04:58:28;16.10;99.90
59075;DHT22;44860;53.020;6.738;2023-07-31T05:00:54;16.10;99.90
59075;DHT22;44860;53.020;6.738;2023-07-31T05:03:20;16.10;99.90
59075;DHT22;44860;53.020;6.738;2023-07-31T05:05:45;16.10;99.90
59075;DHT22;44860;53.020;6.738;2023-07-31T05:08:11;16.20;99.90
59075;DHT22;44860;53.020;6.738;2023-07-31T05:10:37;16.20;99.90
59075;DHT22;44860;53.020;6.738;2023-07-31T05:13:03;16.20;99.90
59075;DHT22;44860;53.020;6.738;2023-07-31T05:15:29;16.20;99.90
59075;DHT22;44860;53.020;6.738;2023-07-31T05:17:55;16.20;99.90
59075;DHT22;44860;53.020;6.738;2023-07-31T05:20:21;16.20;99.90
59075;DHT22;44860;53.020;6.738;2023-07-31T05:22:47;16.20;99.90
59075;DHT22;44860;53.020;6.738;2023-07-31T05:25:12;16.20;99.90
59075;DHT22;44860;53.020;6.738;2023-07-31T05:27:38;16.20;99.90
59075;DHT22;44860;53.020;6.738;2023-07-31T05:30:05;16.20;99.90
59075;DHT22;44860;53.020;6.738;2023-07-31T05:32:31;16.20;99.90
59075;DHT22;44860;53.020;6.738;2023-07-31T05:34:56;16.20;99.90
59075;DHT22;44860;53.020;6.738;2023-07-31T05:37:23;16.20;99.90
59075;DHT22;44860;53.020;6.738;2023-07-31T05:39:49;16.20;99.90
59075;DHT22;44860;53.020;6.738;2023-07-31T05:42:15;16.20;99.90
59075;DHT22;44860;53.020;6.738;2023-07-31T05:44:40;16.30;99.90
59075;DHT22;44860;53.020;6.738;2023-07-31T05:47:06;16.30;99.90
59075;DHT22;44860;53.020;6.738;2023-07-31T05:49:32;16.30;99.90
59075;DHT22;44860;53.020;6.738;2023-07-31T05:51:57;16.30;99.90
59075;DHT22;44860;53.020;6.738;2023-07-31T05:54:23;16.30;99.90
59075;DHT22;44860;53.020;6.738;2023-07-31T05:56:49;16.40;99.90
59075;DHT22;44860;53.020;6.738;2023-07-31T05:59:16;16.40;99.90
59075;DHT22;44860;53.020;6.738;2023-07-31T06:01:42;16.40;99.90
59075;DHT22;44860;53.020;6.738;2023-07-31T06:04:08;16.50;99.90
59075;DHT22;44860;53.020;6.738;2023-07-31T06:06:34;16.50;99.90
59075;DHT22;44860;53.020;6.738;2023-07-31T06:09:00;16.50;99.90
59075;DHT22;44860;53.020;6.738;2023-07-31T06:11:25;16.50;99.90
59075;DHT22;44860;53.020;6.738;2023-07-31T06:13:51;16.50;99.90
59075;DHT22;44860;53.020;6.738;2023-07-31T06:16:17;16.60;99.90
59075;DHT22;44860;53.020;6.738;2023-07-31T06:18:43;16.60;99.90
59075;DHT22;44860;53.020;6.738;2023-07-31T06:21:10;16.60;99.90
59075;DHT22;44860;53.020;6.738;2023-07-31T06:23:36;16.60;99.90
59075;DHT22;44860;53.020;6.738;2023-07-31T06:26:02;16.60;99.90
59075;DHT22;44860;53.020;6.738;2023-07-31T06:28:28;16.70;99.90
59075;DHT22;44860;53.020;6.738;2023-07-31T06:30:57;16.70;99.90
59075;DHT22;44860;53.020;6.738;2023-07-31T06:33:23;16.70;99.90
59075;DHT22;44860;53.020;6.738;2023-07-31T06:35:49;16.70;99.90
59075;DHT22;44860;53.020;6.738;2023-07-31T06:38:15;16.80;99.90
59075;DHT22;44860;53.020;6.738;2023-07-31T06:40:40;16.80;99.90
59075;DHT22;44860;53.020;6.738;2023-07-31T06:43:06;16.80;99.90
59075;DHT22;44860;53.020;6.738;2023-07-31T06:45:37;16.80;99.90
59075;DHT22;44860;53.020;6.738;2023-07-31T06:48:03;16.80;99.90
59075;DHT22;44860;53.020;6.738;2023-07-31T06:50:31;16.90;99.90
59075;DHT22;44860;53.020;6.738;2023-07-31T06:52:57;16.90;99.90
59075;DHT22;44860;53.020;6.738;2023-07-31T06:55:23;16.90;99.90
59075;DHT22;44860;53.020;6.738;2023-07-31T06:57:50;16.90;99.90
59075;DHT22;44860;53.020;6.738;2023-07-31T07:00:17;16.90;99.90
59075;DHT22;44860;53.020;6.738;2023-07-31T07:02:43;16.90;99.90
59075;DHT22;44860;53.020;6.738;2023-07-31T07:05:09;17.00;99.90
59075;DHT22;44860;53.020;6.738;2023-07-31T07:07:35;17.00;99.90
59075;DHT22;44860;53.020;6.738;2023-07-31T07:10:01;17.00;99.90
59075;DHT22;44860;53.020;6.738;2023-07-31T07:12:31;17.00;99.90
59075;DHT22;44860;53.020;6.738;2023-07-31T07:14:57;17.10;99.90
59075;DHT22;44860;53.020;6.738;2023-07-31T07:17:29;17.10;99.90
59075;DHT22;44860;53.020;6.738;2023-07-31T07:19:58;17.00;99.90
59075;DHT22;44860;53.020;6.738;2023-07-31T07:22:24;17.10;99.90
59075;DHT22;44860;53.020;6.738;2023-07-31T07:24:51;17.00;99.90
59075;DHT22;44860;53.020;6.738;2023-07-31T07:27:17;17.00;99.90
59075;DHT22;44860;53.020;6.738;2023-07-31T07:29:42;17.00;99.90
59075;DHT22;44860;53.020;6.738;2023-07-31T07:32:08;17.00;99.90
59075;DHT22;44860;53.020;6.738;2023-07-31T07:34:34;17.00;99.90
59075;DHT22;44860;53.020;6.738;2023-07-31T07:36:59;17.00;99.90
59075;DHT22;44860;53.020;6.738;2023-07-31T07:39:25;17.00;99.90
59075;DHT22;44860;53.020;6.738;2023-07-31T07:41:51;17.00;99.90
59075;DHT22;44860;53.020;6.738;2023-07-31T07:44:18;17.00;99.90
59075;DHT22;44860;53.020;6.738;2023-07-31T07:46:44;17.10;99.90
59075;DHT22;44860;53.020;6.738;2023-07-31T07:49:09;17.10;99.90
59075;DHT22;44860;53.020;6.738;2023-07-31T07:51:35;17.00;99.90
59075;DHT22;44860;53.020;6.738;2023-07-31T07:54:01;17.00;99.90
59075;DHT22;44860;53.020;6.738;2023-07-31T07:56:27;17.00;99.90
59075;DHT22;44860;53.020;6.738;2023-07-31T07:58:54;17.00;99.90
59075;DHT22;44860;53.020;6.738;2023-07-31T08:01:20;17.00;99.90
59075;DHT22;44860;53.020;6.738;2023-07-31T08:03:47;17.00;99.90
59075;DHT22;44860;53.020;6.738;2023-07-31T08:06:13;17.00;99.90
59075;DHT22;44860;53.020;6.738;2023-07-31T08:08:39;17.00;99.90
59075;DHT22;44860;53.020;6.738;2023-07-31T08:11:05;17.10;99.90
59075;DHT22;44860;53.020;6.738;2023-07-31T08:13:31;17.00;99.90
59075;DHT22;44860;53.020;6.738;2023-07-31T08:15:56;17.00;99.90
59075;DHT22;44860;53.020;6.738;2023-07-31T08:18:22;17.00;99.90
59075;DHT22;44860;53.020;6.738;2023-07-31T08:20:47;17.00;99.90
59075;DHT22;44860;53.020;6.738;2023-07-31T08:23:13;17.00;99.90
59075;DHT22;44860;53.020;6.738;2023-07-31T08:25:39;17.00;99.90
59075;DHT22;44860;53.020;6.738;2023-07-31T08:28:06;17.00;99.90
59075;DHT22;44860;53.020;6.738;2023-07-31T08:30:32;17.10;99.90
59075;DHT22;44860;53.020;6.738;2023-07-31T08:33:01;17.10;99.90
59075;DHT22;44860;53.020;6.738;2023-07-31T08:35:28;17.10;99.90
59075;DHT22;44860;53.020;6.738;2023-07-31T08:37:54;17.10;99.90
59075;DHT22;44860;53.020;6.738;2023-07-31T08:40:20;17.10;99.90
59075;DHT22;44860;53.020;6.738;2023-07-31T08:42:48;17.20;99.90
59075;DHT22;44860;53.020;6.738;2023-07-31T08:45:18;17.20;99.90
59075;DHT22;44860;53.020;6.738;2023-07-31T08:47:46;17.20;99.90
59075;DHT22;44860;53.020;6.738;2023-07-31T08:50:13;17.20;99.90
59075;DHT22;44860;53.020;6.738;2023-07-31T08:52:39;17.20;99.90
59075;DHT22;44860;53.020;6.738;2023-07-31T08:55:06;17.30;99.90
59075;DHT22;44860;53.020;6.738;2023-07-31T08:57:36;17.30;99.90
59075;DHT22;44860;53.020;6.738;2023-07-31T09:00:06;17.30;99.90
59075;DHT22;44860;53.020;6.738;2023-07-31T09:02:45;17.30;99.90
59075;DHT22;44860;53.020;6.738;2023-07-31T09:05:11;17.40;99.90
59075;DHT22;44860;53.020;6.738;2023-07-31T09:07:37;17.40;99.90
59075;DHT22;44860;53.020;6.738;2023-07-31T09:10:04;17.40;99.90
59075;DHT22;44860;53.020;6.738;2023-07-31T09:12:31;17.50;99.90
59075;DHT22;44860;53.020;6.738;2023-07-31T09:14:57;17.50;99.90
59075;DHT22;44860;53.020;6.738;2023-07-31T09:17:33;17.50;99.90
59075;DHT22;44860;53.020;6.738;2023-07-31T09:20:20;17.50;99.90
59075;DHT22;44860;53.020;6.738;2023-07-31T09:22:48;17.60;99.90
59075;DHT22;44860;53.020;6.738;2023-07-31T09:28:00;17.60;99.90
59075;DHT22;44860;53.020;6.738;2023-07-31T09:30:26;17.70;99.90
59075;DHT22;44860;53.020;6.738;2023-07-31T09:33:03;17.70;99.90
59075;DHT22;44860;53.020;6.738;2023-07-31T09:35:33;17.70;99.90
59075;DHT22;44860;53.020;6.738;2023-07-31T09:38:07;17.80;99.90
59075;DHT22;44860;53.020;6.738;2023-07-31T09:40:36;17.80;99.90
59075;DHT22;44860;53.020;6.738;2023-07-31T09:43:03;17.80;99.90
59075;DHT22;44860;53.020;6.738;2023-07-31T09:45:30;17.80;99.90
59075;DHT22;44860;53.020;6.738;2023-07-31T09:47:56;17.80;99.90
59075;DHT22;44860;53.020;6.738;2023-07-31T09:50:23;17.80;99.90
59075;DHT22;44860;53.020;6.738;2023-07-31T09:52:50;17.90;99.90
59075;DHT22;44860;53.020;6.738;2023-07-31T09:55:18;17.90;99.90
59075;DHT22;44860;53.020;6.738;2023-07-31T09:57:48;17.90;99.90
59075;DHT22;44860;53.020;6.738;2023-07-31T10:00:16;17.90;99.90
59075;DHT22;44860;53.020;6.738;2023-07-31T10:02:45;17.90;99.90
59075;DHT22;44860;53.020;6.738;2023-07-31T10:05:16;17.90;99.90
59075;DHT22;44860;53.020;6.738;2023-07-31T10:07:45;17.90;99.90
59075;DHT22;44860;53.020;6.738;2023-07-31T10:10:14;18.00;99.90
59075;DHT22;44860;53.020;6.738;2023-07-31T10:12:40;18.00;99.90
59075;DHT22;44860;53.020;6.738;2023-07-31T10:15:08;18.00;99.90
59075;DHT22;44860;53.020;6.738;2023-07-31T10:17:35;18.10;99.90
59075;DHT22;44860;53.020;6.738;2023-07-31T10:20:02;18.10;99.90
59075;DHT22;44860;53.020;6.738;2023-07-31T10:22:30;18.10;99.90
59075;DHT22;44860;53.020;6.738;2023-07-31T10:24:58;18.10;99.90
59075;DHT22;44860;53.020;6.738;2023-07-31T10:27:24;18.20;99.90
59075;DHT22;44860;53.020;6.738;2023-07-31T10:29:51;18.20;99.90
59075;DHT22;44860;53.020;6.738;2023-07-31T10:32:17;18.30;99.90
59075;DHT22;44860;53.020;6.738;2023-07-31T10:34:44;18.30;99.90
59075;DHT22;44860;53.020;6.738;2023-07-31T10:37:29;18.30;99.90
59075;DHT22;44860;53.020;6.738;2023-07-31T10:40:27;18.40;99.90
59075;DHT22;44860;53.020;6.738;2023-07-31T10:42:54;18.50;99.90
59075;DHT22;44860;53.020;6.738;2023-07-31T10:48:01;18.60;99.90
59075;DHT22;44860;53.020;6.738;2023-07-31T10:50:28;18.80;99.90
59075;DHT22;44860;53.020;6.738;2023-07-31T10:52:55;18.80;99.90
59075;DHT22;44860;53.020;6.738;2023-07-31T10:55:28;18.90;99.90
59075;DHT22;44860;53.020;6.738;2023-07-31T10:57:55;18.90;99.90
59075;DHT22;44860;53.020;6.738;2023-07-31T11:03:08;18.90;99.90
59075;DHT22;44860;53.020;6.738;2023-07-31T11:08:16;19.00;99.90
59075;DHT22;44860;53.020;6.738;2023-07-31T11:10:43;19.00;99.90
59075;DHT22;44860;53.020;6.738;2023-07-31T11:13:10;19.00;99.90
59075;DHT22;44860;53.020;6.738;2023-07-31T11:15:36;19.00;99.90
59075;DHT22;44860;53.020;6.738;2023-07-31T11:18:02;19.00;99.90
59075;DHT22;44860;53.020;6.738;2023-07-31T11:20:35;19.10;99.90
59075;DHT22;44860;53.020;6.738;2023-07-31T11:23:03;19.10;99.90
59075;DHT22;44860;53.020;6.738;2023-07-31T11:25:30;19.10;99.90
59075;DHT22;44860;53.020;6.738;2023-07-31T11:27:57;19.10;99.90
59075;DHT22;44860;53.020;6.738;2023-07-31T11:30:23;19.10;99.90
59075;DHT22;44860;53.020;6.738;2023-07-31T11:32:49;19.10;99.90
59075;DHT22;44860;53.020;6.738;2023-07-31T11:35:16;19.10;99.90
59075;DHT22;44860;53.020;6.738;2023-07-31T11:37:43;19.10;99.90
59075;DHT22;44860;53.020;6.738;2023-07-31T11:40:10;19.10;99.90
59075;DHT22;44860;53.020;6.738;2023-07-31T11:42:36;19.10;99.90
59075;DHT22;44860;53.020;6.738;2023-07-31T11:45:05;19.10;99.90
59075;DHT22;44860;53.020;6.738;2023-07-31T11:47:36;19.10;99.90
59075;DHT22;44860;53.020;6.738;2023-07-31T11:50:07;19.20;99.90
59075;DHT22;44860;53.020;6.738;2023-07-31T11:52:37;19.20;99.90
59075;DHT22;44860;53.020;6.738;2023-07-31T11:55:04;19.20;99.90
59075;DHT22;44860;53.020;6.738;2023-07-31T11:57:31;19.20;99.90
59075;DHT22;44860;53.020;6.738;2023-07-31T11:59:59;19.10;99.90
59075;DHT22;44860;53.020;6.738;2023-07-31T12:02:24;19.10;99.90
59075;DHT22;44860;53.020;6.738;2023-07-31T12:04:50;19.00;99.90
59075;DHT22;44860;53.020;6.738;2023-07-31T12:07:16;19.00;99.90
59075;DHT22;44860;53.020;6.738;2023-07-31T12:09:55;19.00;99.90
59075;DHT22;44860;53.020;6.738;2023-07-31T12:12:22;19.00;99.90
59075;DHT22;44860;53.020;6.738;2023-07-31T12:14:48;19.10;99.90
59075;DHT22;44860;53.020;6.738;2023-07-31T12:17:14;19.10;99.90
59075;DHT22;44860;53.020;6.738;2023-07-31T12:19:40;19.10;99.90
59075;DHT22;44860;53.020;6.738;2023-07-31T12:22:14;19.20;99.90
59075;DHT22;44860;53.020;6.738;2023-07-31T12:24:43;19.30;99.90
59075;DHT22;44860;53.020;6.738;2023-07-31T12:27:13;19.30;99.90
59075;DHT22;44860;53.020;6.738;2023-07-31T12:29:41;19.30;99.90
59075;DHT22;44860;53.020;6.738;2023-07-31T12:32:23;19.30;99.90
59075;DHT22;44860;53.020;6.738;2023-07-31T12:34:50;19.30;99.90
59075;DHT22;44860;53.020;6.738;2023-07-31T12:37:17;19.30;99.90
59075;DHT22;44860;53.020;6.738;2023-07-31T12:39:43;19.20;99.90
59075;DHT22;44860;53.020;6.738;2023-07-31T12:42:08;19.20;99.90
59075;DHT22;44860;53.020;6.738;2023-07-31T12:44:34;19.20;99.90
59075;DHT22;44860;53.020;6.738;2023-07-31T12:47:00;19.20;99.90
59075;DHT22;44860;53.020;6.738;2023-07-31T12:49:25;19.20;99.90
59075;DHT22;44860;53.020;6.738;2023-07-31T12:51:51;19.10;99.90
59075;DHT22;44860;53.020;6.738;2023-07-31T12:54:17;19.20;99.90
59075;DHT22;44860;53.020;6.738;2023-07-31T12:56:42;19.20;99.90
59075;DHT22;44860;53.020;6.738;2023-07-31T12:59:09;19.20;99.90
59075;DHT22;44860;53.020;6.738;2023-07-31T13:01:34;19.10;99.90
59075;DHT22;44860;53.020;6.738;2023-07-31T13:04:00;19.10;99.90
59075;DHT22;44860;53.020;6.738;2023-07-31T13:06:25;19.10;99.90
59075;DHT22;44860;53.020;6.738;2023-07-31T13:08:51;19.10;99.90
59075;DHT22;44860;53.020;6.738;2023-07-31T13:11:17;19.10;99.90
59075;DHT22;44860;53.020;6.738;2023-07-31T13:13:43;19.10;99.90
59075;DHT22;44860;53.020;6.738;2023-07-31T13:16:08;19.10;99.90
59075;DHT22;44860;53.020;6.738;2023-07-31T13:18:34;19.20;99.90
59075;DHT22;44860;53.020;6.738;2023-07-31T13:21:00;19.10;99.90
59075;DHT22;44860;53.020;6.738;2023-07-31T13:23:25;19.20;99.90
59075;DHT22;44860;53.020;6.738;2023-07-31T13:25:51;19.20;99.90
59075;DHT22;44860;53.020;6.738;2023-07-31T13:28:17;19.20;99.90
59075;DHT22;44860;53.020;6.738;2023-07-31T13:30:42;19.20;99.90
59075;DHT22;44860;53.020;6.738;2023-07-31T13:33:08;19.30;99.90
59075;DHT22;44860;53.020;6.738;2023-07-31T13:35:34;19.30;99.90
59075;DHT22;44860;53.020;6.738;2023-07-31T13:37:59;19.20;99.90
59075;DHT22;44860;53.020;6.738;2023-07-31T13:40:25;19.30;99.90
59075;DHT22;44860;53.020;6.738;2023-07-31T13:42:51;19.30;99.90
59075;DHT22;44860;53.020;6.738;2023-07-31T13:45:16;19.30;99.90
59075;DHT22;44860;53.020;6.738;2023-07-31T13:47:42;19.30;99.90
59075;DHT22;44860;53.020;6.738;2023-07-31T13:50:08;19.30;99.90
59075;DHT22;44860;53.020;6.738;2023-07-31T13:52:34;19.30;99.90
59075;DHT22;44860;53.020;6.738;2023-07-31T13:54:59;19.40;99.90
59075;DHT22;44860;53.020;6.738;2023-07-31T13:57:25;19.40;99.90
59075;DHT22;44860;53.020;6.738;2023-07-31T13:59:51;19.50;99.90
59075;DHT22;44860;53.020;6.738;2023-07-31T14:02:16;19.50;99.90
59075;DHT22;44860;53.020;6.738;2023-07-31T14:04:42;19.50;99.90
59075;DHT22;44860;53.020;6.738;2023-07-31T14:07:08;19.50;99.90
59075;DHT22;44860;53.020;6.738;2023-07-31T14:09:33;19.60;99.90
59075;DHT22;44860;53.020;6.738;2023-07-31T14:11:59;19.60;99.90
59075;DHT22;44860;53.020;6.738;2023-07-31T14:14:25;19.60;99.90
59075;DHT22;44860;53.020;6.738;2023-07-31T14:16:50;19.70;99.90
59075;DHT22;44860;53.020;6.738;2023-07-31T14:19:16;19.70;99.90
59075;DHT22;44860;53.020;6.738;2023-07-31T14:21:42;19.80;99.90
59075;DHT22;44860;53.020;6.738;2023-07-31T14:24:07;19.80;99.90
59075;DHT22;44860;53.020;6.738;2023-07-31T14:26:33;19.90;99.90
59075;DHT22;44860;53.020;6.738;2023-07-31T14:28:59;19.90;99.90
59075;DHT22;44860;53.020;6.738;2023-07-31T14:31:24;19.90;99.90
59075;DHT22;44860;53.020;6.738;2023-07-31T14:33:50;19.90;99.90
59075;DHT22;44860;53.020;6.738;2023-07-31T14:36:16;20.00;99.90
59075;DHT22;44860;53.020;6.738;2023-07-31T14:38:41;19.90;99.90
59075;DHT22;44860;53.020;6.738;2023-07-31T14:41:07;20.00;99.90
59075;DHT22;44860;53.020;6.738;2023-07-31T14:43:33;20.00;99.90
59075;DHT22;44860;53.020;6.738;2023-07-31T14:45:58;20.00;99.90
59075;DHT22;44860;53.020;6.738;2023-07-31T14:48:26;20.00;99.90
59075;DHT22;44860;53.020;6.738;2023-07-31T14:50:52;20.00;99.90
59075;DHT22;44860;53.020;6.738;2023-07-31T14:53:18;20.00;99.90
59075;DHT22;44860;53.020;6.738;2023-07-31T14:55:44;20.00;99.90
59075;DHT22;44860;53.020;6.738;2023-07-31T14:58:09;20.00;99.90
59075;DHT22;44860;53.020;6.738;2023-07-31T15:00:36;20.00;99.90
59075;DHT22;44860;53.020;6.738;2023-07-31T15:03:02;20.00;99.90
59075;DHT22;44860;53.020;6.738;2023-07-31T15:05:28;20.00;99.90
59075;DHT22;44860;53.020;6.738;2023-07-31T15:07:54;20.00;99.90
59075;DHT22;44860;53.020;6.738;2023-07-31T15:10:20;20.00;99.90
59075;DHT22;44860;53.020;6.738;2023-07-31T15:12:45;19.90;99.90
59075;DHT22;44860;53.020;6.738;2023-07-31T15:15:11;19.90;99.90
59075;DHT22;44860;53.020;6.738;2023-07-31T15:17:37;19.90;99.90
59075;DHT22;44860;53.020;6.738;2023-07-31T15:20:03;19.90;99.90
59075;DHT22;44860;53.020;6.738;2023-07-31T15:22:29;19.90;99.90
59075;DHT22;44860;53.020;6.738;2023-07-31T15:24:56;19.90;99.90
59075;DHT22;44860;53.020;6.738;2023-07-31T15:27:22;19.90;99.90
59075;DHT22;44860;53.020;6.738;2023-07-31T15:29:49;19.90;99.90
59075;DHT22;44860;53.020;6.738;2023-07-31T15:32:16;19.90;99.90
59075;DHT22;44860;53.020;6.738;2023-07-31T15:34:43;19.90;99.90
59075;DHT22;44860;53.020;6.738;2023-07-31T15:37:09;19.80;99.90
59075;DHT22;44860;53.020;6.738;2023-07-31T15:39:34;19.90;99.90
59075;DHT22;44860;53.020;6.738;2023-07-31T15:42:00;19.90;99.90
59075;DHT22;44860;53.020;6.738;2023-07-31T15:44:26;19.90;99.90